Time;durP1;ratioP1;P1;durP2;ratioP2;P2;SDS_P1;SDS_P2;PMS_P1;PMS_P2;Temp;Humidity;BMP_temperature;BMP_pressure;BME280_temperature;BME280_humidity;BME280_pressure;Samples;Min_cycle;Max_cycle;Signal;HPM_P1;HPM_P2
2023/09/28 00:02:21;;;;;;;2.27;2.07;;;;;;;20.27;56.96;101244.94;5113044;28;20039;-81
2023/09/28 00:04:46;;;;;;;2.97;2.50;;;;;;;20.28;57.04;101243.09;5122885;28;20772;-80
2023/09/28 00:07:11;;;;;;;2.47;2.28;;;;;;;20.00;56.64;101188.59;5120031;28;20035;-81
2023/09/28 00:09:37;;;;;;;2.60;2.17;;;;;;;19.98;56.86;101200.41;5112428;28;20040;-79
2023/09/28 00:12:02;;;;;;;3.33;2.38;;;;;;;20.23;56.75;101252.53;5116793;28;20034;-81
2023/09/28 00:14:28;;;;;;;2.55;2.30;;;;;;;20.15;56.93;101240.91;5106056;28;20513;-81
2023/09/28 00:16:53;;;;;;;2.58;2.30;;;;;;;20.01;56.81;101215.44;5110740;28;20024;-81
2023/09/28 00:19:19;;;;;;;2.10;1.90;;;;;;;20.08;57.09;101238.00;5116446;27;20032;-81
2023/09/28 00:21:44;;;;;;;2.55;2.35;;;;;;;19.97;56.71;101216.78;5113081;28;20115;-80
2023/09/28 00:24:09;;;;;;;3.35;2.30;;;;;;;19.77;56.97;101191.13;5107480;28;20039;-81
2023/09/28 00:26:37;;;;;;;3.42;2.67;;;;;;;20.13;56.80;101237.50;5114042;28;20139;-81
2023/09/28 00:29:03;;;;;;;3.28;2.47;;;;;;;20.27;57.09;101263.84;5106099;28;20039;-81
2023/09/28 00:31:28;;;;;;;2.30;2.10;;;;;;;20.27;57.11;101263.84;5094410;28;20027;-81
2023/09/28 00:33:53;;;;;;;2.60;2.40;;;;;;;20.20;56.63;101262.81;5117379;28;20043;-82
2023/09/28 00:36:19;;;;;;;2.90;2.60;;;;;;;20.27;56.78;101276.50;5110472;28;20030;-82
2023/09/28 00:38:47;;;;;;;3.03;2.67;;;;;;;20.27;56.97;101274.66;5106515;28;20023;-81
2023/09/28 00:41:12;;;;;;;3.58;2.88;;;;;;;20.27;56.91;101287.31;5115929;28;20028;-81
2023/09/28 00:43:38;;;;;;;3.08;2.63;;;;;;;20.12;57.03;101268.22;5108034;28;20126;-81
2023/09/28 00:46:03;;;;;;;2.85;2.65;;;;;;;20.14;57.14;101269.75;5112965;28;20020;-81
2023/09/28 00:48:29;;;;;;;2.92;2.60;;;;;;;20.26;56.77;101286.44;5113295;28;20020;-81
2023/09/28 00:50:54;;;;;;;2.70;2.30;;;;;;;20.13;56.92;101257.25;5120400;28;20096;-80
2023/09/28 00:53:21;;;;;;;2.72;2.30;;;;;;;19.97;57.08;101228.41;5108711;28;20054;-81
2023/09/28 00:55:47;;;;;;;2.83;2.55;;;;;;;20.03;56.70;101248.47;5103304;28;20052;-80
2023/09/28 00:58:12;;;;;;;2.55;2.08;;;;;;;20.25;56.86;101286.63;5104336;28;20039;-81
2023/09/28 01:00:38;;;;;;;2.78;2.30;;;;;;;19.85;56.82;101226.22;5092509;28;20024;-79
2023/09/28 01:03:08;;;;;;;2.35;2.13;;;;;;;20.26;56.92;101285.59;5104801;28;20027;-80
2023/09/28 01:05:34;;;;;;;2.42;2.15;;;;;;;20.26;56.60;101282.91;5107760;28;20050;-80
2023/09/28 01:08:12;;;;;;;3.17;2.33;;;;;;;20.26;57.08;101280.19;5108499;28;20027;-81
2023/09/28 01:10:40;;;;;;;3.10;2.53;;;;;;;20.06;56.72;101260.81;5106158;28;20040;-80
2023/09/28 01:13:10;;;;;;;2.78;2.40;;;;;;;20.25;56.77;101290.16;5112542;28;20055;-80
2023/09/28 01:15:48;;;;;;;2.63;2.35;;;;;;;20.02;56.98;101246.81;5114979;28;20044;-80
2023/09/28 01:18:18;;;;;;;2.60;2.40;;;;;;;20.09;56.92;101249.66;5108335;28;20131;-81
2023/09/28 01:20:45;;;;;;;2.30;2.10;;;;;;;20.07;56.98;101257.09;5092196;28;20032;-80
2023/09/28 01:23:11;;;;;;;2.75;2.00;;;;;;;20.05;56.79;101245.59;5102464;28;20031;-81
2023/09/28 01:25:39;;;;;;;2.83;2.35;;;;;;;20.09;56.88;101245.13;5106447;28;20533;-80
2023/09/28 01:28:10;;;;;;;2.58;2.30;;;;;;;20.01;56.69;101238.84;5095314;28;20031;-81
2023/09/28 01:30:35;;;;;;;2.45;2.25;;;;;;;20.26;56.96;101277.50;5109752;28;20034;-80
2023/09/28 01:33:02;;;;;;;2.88;2.10;;;;;;;20.25;57.05;101284.75;5107850;28;20127;-80
2023/09/28 01:35:29;;;;;;;2.53;2.30;;;;;;;20.25;56.78;101278.53;5110720;28;20488;-81
2023/09/28 01:38:10;;;;;;;2.75;2.25;;;;;;;20.24;56.89;101277.69;5108165;28;20050;-80
2023/09/28 01:40:38;;;;;;;2.58;2.38;;;;;;;20.25;56.88;101279.34;5117648;28;20020;-79
2023/09/28 01:43:04;;;;;;;3.28;2.97;;;;;;;20.25;56.98;101276.66;5113048;28;20020;-81
2023/09/28 01:45:29;;;;;;;3.63;2.70;;;;;;;20.04;56.56;101241.22;5110799;28;20040;-81
2023/09/28 01:47:55;;;;;;;2.88;2.30;;;;;;;20.27;56.77;101284.59;5115171;28;20042;-81
2023/09/28 01:50:20;;;;;;;2.70;2.30;;;;;;;20.03;56.87;101256.56;5122955;28;20058;-81
2023/09/28 01:52:46;;;;;;;2.65;2.22;;;;;;;20.26;56.49;101288.31;5110547;28;20054;-80
2023/09/28 01:55:11;;;;;;;2.47;2.28;;;;;;;20.11;56.65;101269.25;5116449;28;20059;-79
2023/09/28 01:57:36;;;;;;;2.00;1.80;;;;;;;19.98;56.98;101243.59;5107176;28;20596;-80
2023/09/28 02:00:14;;;;;;;2.60;2.20;;;;;;;20.06;56.80;101267.03;5119000;28;20035;-80
2023/09/28 02:02:43;;;;;;;2.80;2.50;;;;;;;20.25;56.48;101303.66;5121479;28;20031;-80
2023/09/28 02:05:08;;;;;;;2.30;2.10;;;;;;;19.96;56.88;101250.16;5122677;28;20019;-81
2023/09/28 02:07:36;;;;;;;3.38;3.03;;;;;;;20.20;56.70;101296.06;5113398;28;20431;-80
2023/09/28 02:10:03;;;;;;;2.30;2.10;;;;;;;20.07;56.60;101271.44;5117680;28;20040;-80
2023/09/28 02:12:29;;;;;;;2.80;2.50;;;;;;;20.04;56.68;101260.94;5095056;28;20028;-81
2023/09/28 02:14:55;;;;;;;3.13;2.83;;;;;;;19.94;56.56;101253.03;5108859;28;20031;-81
2023/09/28 02:17:20;;;;;;;2.55;2.35;;;;;;;20.23;56.61;101303.84;5123156;28;20024;-81
2023/09/28 02:19:47;;;;;;;2.65;2.13;;;;;;;20.22;56.64;101310.25;5112250;27;20078;-81
2023/09/28 02:22:13;;;;;;;2.35;2.13;;;;;;;19.91;56.46;101253.34;5115766;28;20087;-81
2023/09/28 02:24:38;;;;;;;2.80;2.50;;;;;;;20.04;56.55;101282.53;5116820;28;20024;-80
2023/09/28 02:27:03;;;;;;;2.35;2.08;;;;;;;19.99;56.73;101279.50;5108578;28;20016;-81
2023/09/28 02:29:29;;;;;;;2.90;2.20;;;;;;;20.04;56.75;101287.94;5107953;28;20031;-81
2023/09/28 02:31:54;;;;;;;2.58;2.38;;;;;;;20.06;56.54;101296.75;5115488;28;20054;-81
2023/09/28 02:34:20;;;;;;;2.70;2.30;;;;;;;20.08;56.67;101302.81;5109460;28;20036;-81
2023/09/28 02:36:45;;;;;;;2.60;2.40;;;;;;;20.13;56.48;101315.78;5118294;28;20027;-81
2023/09/28 02:39:10;;;;;;;2.67;2.47;;;;;;;20.03;56.36;101309.72;5117180;28;20028;-80
2023/09/28 02:41:38;;;;;;;2.63;2.35;;;;;;;19.78;56.68;101252.16;5105699;28;20073;-80
2023/09/28 02:44:04;;;;;;;2.67;2.40;;;;;;;20.02;56.74;101292.69;5119586;28;20035;-81
2023/09/28 02:46:29;;;;;;;2.50;2.05;;;;;;;20.20;56.62;101325.75;5114990;28;20089;-80
2023/09/28 02:48:55;;;;;;;2.65;2.45;;;;;;;20.20;56.88;101330.31;5111392;28;20023;-80
2023/09/28 02:51:20;;;;;;;2.72;2.20;;;;;;;20.09;56.65;101322.53;5120119;28;20019;-80
2023/09/28 02:53:46;;;;;;;3.03;2.22;;;;;;;20.19;56.75;101340.28;5111691;28;20034;-80
2023/09/28 02:56:12;;;;;;;2.70;2.30;;;;;;;20.18;56.83;101341.31;5095959;28;20024;-81
2023/09/28 02:58:38;;;;;;;3.15;2.42;;;;;;;19.92;56.51;101290.16;5100767;28;20079;-81
2023/09/28 03:01:03;;;;;;;2.65;2.42;;;;;;;20.05;56.56;101313.09;5093319;28;20023;-81
2023/09/28 03:03:29;;;;;;;2.78;2.38;;;;;;;20.11;56.57;101324.06;5115307;28;20504;-81
2023/09/28 03:05:55;;;;;;;2.53;2.33;;;;;;;20.17;56.29;101338.75;5110370;28;20032;-81
2023/09/28 03:08:20;;;;;;;2.97;2.20;;;;;;;20.13;56.48;101330.13;5100383;28;20051;-80
2023/09/28 03:10:46;;;;;;;2.60;2.10;;;;;;;20.18;56.50;101337.75;5091709;28;20057;-80
2023/09/28 03:13:11;;;;;;;3.10;2.35;;;;;;;20.11;56.85;101329.47;5098117;28;20059;-81
2023/09/28 03:15:44;;;;;;;2.80;2.22;;;;;;;19.92;56.67;101306.34;5113510;27;20028;-81
2023/09/28 03:18:13;;;;;;;2.45;2.25;;;;;;;20.07;56.67;101327.28;5097146;27;20028;-81
2023/09/28 03:20:38;;;;;;;2.55;2.35;;;;;;;19.97;56.81;101306.69;5117768;28;20016;-81
2023/09/28 03:23:04;;;;;;;2.40;2.20;;;;;;;20.16;56.66;101331.66;5107343;28;20020;-80
2023/09/28 03:25:30;;;;;;;3.35;2.65;;;;;;;19.88;56.83;101290.63;5108789;28;20031;-80
2023/09/28 03:27:56;;;;;;;2.97;1.92;;;;;;;20.02;56.91;101319.66;5122023;28;20011;-81
2023/09/28 03:30:24;;;;;;;2.40;2.20;;;;;;;20.15;56.94;101346.19;5114749;28;20621;-81
2023/09/28 03:32:49;;;;;;;2.20;1.98;;;;;;;20.15;56.60;101349.72;5108806;28;20041;-82
2023/09/28 03:35:16;;;;;;;3.22;2.58;;;;;;;20.15;56.91;101354.28;5098857;28;20028;-81
2023/09/28 03:37:42;;;;;;;3.65;2.80;;;;;;;20.07;56.90;101357.81;5111819;28;20039;-80
2023/09/28 03:40:11;;;;;;;2.53;2.25;;;;;;;20.14;56.60;101377.75;5104723;28;20031;-79
2023/09/28 03:42:41;;;;;;;2.20;2.00;;;;;;;20.05;56.94;101357.13;5107977;28;20028;-80
2023/09/28 03:45:08;;;;;;;2.58;2.13;;;;;;;20.14;56.83;101371.50;5097816;28;20083;-80
2023/09/28 03:47:37;;;;;;;2.33;2.13;;;;;;;19.91;56.60;101336.16;5112219;28;20028;-80
2023/09/28 03:50:03;;;;;;;;;;;;;;;20.13;56.62;101376.03;5117885;28;20053;-80
2023/09/28 03:52:30;;;;;;;2.50;2.30;;;;;;;20.06;56.60;101375.03;5122212;28;19912;-80
2023/09/28 03:54:56;;;;;;;2.67;2.30;;;;;;;20.11;56.77;101374.53;5120868;28;20047;-81
2023/09/28 03:57:21;;;;;;;3.03;2.40;;;;;;;20.11;56.83;101385.31;5112971;28;20020;-80
2023/09/28 03:59:47;;;;;;;2.65;2.10;;;;;;;19.90;56.87;101359.63;5118248;28;20495;-80
2023/09/28 04:02:13;;;;;;;2.40;2.20;;;;;;;19.79;56.80;101332.94;5110693;28;20032;-80
2023/09/28 04:04:38;;;;;;;2.45;1.90;;;;;;;20.10;56.85;101384.47;5110584;28;20031;-80
2023/09/28 04:07:03;;;;;;;3.05;2.75;;;;;;;19.96;56.88;101358.09;5122166;28;20024;-81
2023/09/28 04:09:29;;;;;;;2.45;2.20;;;;;;;19.94;56.82;101354.75;5111416;28;20051;-81
2023/09/28 04:11:55;;;;;;;2.50;2.10;;;;;;;20.09;56.89;101390.91;5111761;28;20027;-81
2023/09/28 04:14:21;;;;;;;2.30;2.10;;;;;;;20.09;56.52;101401.69;5121825;27;20020;-81
2023/09/28 04:16:47;;;;;;;3.58;2.50;;;;;;;19.88;56.77;101369.75;5108027;28;20023;-80
2023/09/28 04:19:13;;;;;;;2.67;1.98;;;;;;;19.95;56.47;101372.63;5116233;28;20043;-80
2023/09/28 04:21:38;;;;;;;2.65;2.40;;;;;;;19.85;56.79;101364.66;5108443;28;20027;-80
2023/09/28 04:24:04;;;;;;;2.35;2.05;;;;;;;20.04;56.76;101400.47;5108974;28;20051;-80
2023/09/28 04:26:29;;;;;;;2.95;2.20;;;;;;;19.80;57.11;101350.81;5119138;28;20034;-77
2023/09/28 04:28:54;;;;;;;2.50;2.30;;;;;;;19.84;56.93;101365.69;5113443;28;20045;-81
2023/09/28 04:31:20;;;;;;;2.72;2.40;;;;;;;19.91;56.49;101374.78;5108781;28;20027;-81
2023/09/28 04:33:45;;;;;;;2.95;2.00;;;;;;;19.76;56.82;101351.31;5118058;28;20036;-80
2023/09/28 04:36:11;;;;;;;2.92;2.40;;;;;;;19.84;56.87;101364.84;5115911;28;20506;-80
2023/09/28 04:38:36;;;;;;;2.30;2.10;;;;;;;19.90;56.90;101377.66;5106707;28;20403;-80
2023/09/28 04:41:02;;;;;;;2.30;2.10;;;;;;;20.06;56.94;101406.56;5117927;28;20041;-80
2023/09/28 04:43:28;;;;;;;3.22;2.30;;;;;;;19.87;56.79;101388.78;5114043;28;20027;-81
2023/09/28 04:45:53;;;;;;;2.28;2.05;;;;;;;20.05;56.80;101407.56;5106178;28;20564;-81
2023/09/28 04:48:19;;;;;;;2.85;2.40;;;;;;;20.04;56.94;101422.06;5104504;28;20020;-80
2023/09/28 04:50:44;;;;;;;3.42;2.83;;;;;;;19.79;56.82;101372.56;5103783;28;20118;-80
2023/09/28 04:53:09;;;;;;;2.42;2.22;;;;;;;19.81;56.99;101370.56;5111782;28;20035;-81
2023/09/28 04:55:35;;;;;;;2.60;2.28;;;;;;;20.04;56.82;101404.00;5116635;28;20512;-80
2023/09/28 04:58:00;;;;;;;3.45;2.25;;;;;;;19.86;56.95;101373.59;5108454;28;20035;-81
2023/09/28 05:00:26;;;;;;;2.53;2.00;;;;;;;19.91;56.93;101384.75;5110404;28;20031;-81
2023/09/28 05:02:52;;;;;;;3.33;2.38;;;;;;;19.95;57.07;101392.34;5114043;28;20019;-81
2023/09/28 05:05:18;;;;;;;3.20;2.40;;;;;;;19.64;56.70;101339.97;5088783;28;20016;-80
2023/09/28 05:07:43;;;;;;;3.00;2.22;;;;;;;19.91;57.17;101387.44;5110093;28;20027;-80
2023/09/28 05:10:09;;;;;;;2.40;2.20;;;;;;;19.89;56.92;101389.47;5111238;28;20055;-80
2023/09/28 05:12:34;;;;;;;2.95;2.50;;;;;;;19.80;56.94;101377.81;5104312;28;20108;-81
2023/09/28 05:14:59;;;;;;;2.67;2.42;;;;;;;20.01;57.08;101416.97;5102171;28;20031;-80
2023/09/28 05:17:25;;;;;;;3.38;2.50;;;;;;;20.01;57.08;101435.88;5109403;28;20028;-80
2023/09/28 05:19:50;;;;;;;2.83;2.35;;;;;;;19.93;56.64;101421.38;5107215;28;20028;-80
2023/09/28 05:22:16;;;;;;;2.75;2.53;;;;;;;20.01;56.84;101430.47;5103499;28;20036;-77
2023/09/28 05:24:41;;;;;;;2.45;2.25;;;;;;;20.00;56.72;101440.44;5118421;28;20043;-80
2023/09/28 05:27:07;;;;;;;3.13;2.47;;;;;;;19.69;56.64;101397.81;5108559;28;20028;-81
2023/09/28 05:29:32;;;;;;;2.88;2.10;;;;;;;19.50;56.98;101376.47;5087862;28;20020;-81
2023/09/28 05:31:57;;;;;;;3.42;2.20;;;;;;;19.26;56.85;101335.91;5106431;28;20024;-81
2023/09/28 05:34:22;;;;;;;2.42;2.22;;;;;;;19.60;56.85;101387.97;5110552;28;20028;-81
2023/09/28 05:36:48;;;;;;;2.45;2.20;;;;;;;19.87;57.02;101435.50;5105646;28;20065;-80
2023/09/28 05:39:13;;;;;;;2.50;2.30;;;;;;;19.43;56.86;101378.94;5119948;28;20028;-80
2023/09/28 05:41:38;;;;;;;3.45;2.17;;;;;;;19.71;56.83;101433.59;5108567;28;20032;-80
2023/09/28 05:44:04;;;;;;;2.30;1.95;;;;;;;19.71;56.97;101438.97;5108024;28;20032;-80
2023/09/28 05:46:30;;;;;;;3.20;2.50;;;;;;;19.70;56.55;101428.34;5119288;28;20024;-79
2023/09/28 05:48:56;;;;;;;3.20;2.20;;;;;;;19.83;56.81;101461.09;5093038;28;20024;-80
2023/09/28 05:51:21;;;;;;;2.70;2.10;;;;;;;19.52;56.62;101405.97;5108956;28;20050;-80
2023/09/28 05:53:46;;;;;;;3.25;2.30;;;;;;;19.84;56.76;101461.97;5119273;28;20055;-79
2023/09/28 05:56:12;;;;;;;2.90;2.40;;;;;;;19.98;56.97;101483.78;5102394;28;20032;-81
2023/09/28 05:58:37;;;;;;;2.97;2.55;;;;;;;19.97;56.93;101492.91;5108241;28;20024;-81
2023/09/28 06:01:07;;;;;;;3.30;2.70;;;;;;;19.66;57.04;101449.38;5104323;28;20354;-80
2023/09/28 06:03:32;;;;;;;2.95;2.33;;;;;;;19.57;56.99;101427.91;5114093;28;20054;-80
2023/09/28 06:05:58;;;;;;;2.67;2.22;;;;;;;19.81;56.90;101478.50;5118205;28;20626;-80
2023/09/28 06:38:05;;;;;;;;;;;;;;;;;;;;;
2023/09/28 07:02:47;;;;;;;4.32;2.90;;;;;;;17.83;56.77;101206.91;4736920;30;20081;-80
2023/09/28 07:09:34;;;;;;;2.72;2.38;;;;;;;19.90;56.92;101548.53;4763782;30;20068;-80
2023/09/28 07:27:52;;;;;;;;;;;;;;;;;;;;;
2023/09/28 07:38:41;;;;;;;2.63;1.98;;;;;;;19.91;56.93;101584.44;5035214;28;20068;-80
2023/09/28 08:42:22;;;;;;;5.55;2.75;;;;;;;20.01;56.80;101654.53;4795129;29;20081;-81
2023/09/28 08:49:37;;;;;;;;;;;;;;;;;;;;;
2023/09/28 08:56:10;;;;;;;;;;;;;;;;;;;;;
2023/09/28 09:14:48;;;;;;;4.45;2.28;;;;;;;17.71;56.86;101276.19;4789070;29;20138;-81
2023/09/28 09:33:43;;;;;;;;;;;;;;;;;;;;;
2023/09/28 09:36:27;;;;;;;3.72;2.00;;;;;;;18.64;57.10;101478.69;4850019;29;20049;-81
2023/09/28 09:39:39;;;;;;;3.90;2.08;;;;;;;17.68;56.85;101335.66;4842920;29;20151;-81
2023/09/28 09:57:32;;;;;;;;;;;;;;;20.12;57.11;101697.47;4885770;29;20040;-83
2023/09/28 10:18:30;;;;;;;;;;;;;;;;;;;;;
2023/09/28 10:25:15;;;;;;;;;;;;;;;;;;;;;
2023/09/28 10:42:47;;;;;;;;;;;;;;;;;;;;;
2023/09/28 10:50:20;;;;;;;;;;;;;;;;;;;;;
2023/09/28 11:04:00;;;;;;;4.22;2.03;;;;;;;17.87;56.85;101315.91;4728502;30;20040;-82
2023/09/28 11:07:23;;;;;;;4.05;2.00;;;;;;;17.83;56.75;101331.47;4750743;30;20040;-82
2023/09/28 11:17:57;;;;;;;5.50;2.25;;;;;;;17.72;56.81;101296.72;4697402;30;20077;-81
2023/09/28 12:18:42;;;;;;;3.92;1.80;;;;;;;18.55;57.17;101417.69;4810069;29;20081;-82
2023/09/28 12:39:31;;;;;;;;;;;;;;;;;;;;;
2023/09/28 12:43:02;;;;;;;;;;;;;;;;;;;;;
2023/09/28 15:44:18;;;;;;;3.35;1.30;;;;;;;20.58;57.94;101644.09;5114001;22;20067;-51
2023/09/28 15:46:43;;;;;;;3.08;1.50;;;;;;;20.58;58.08;101636.84;5094210;28;20024;-49
2023/09/28 15:49:09;;;;;;;2.53;1.38;;;;;;;20.45;57.98;101621.03;5092704;28;20028;-47
2023/09/28 15:51:34;;;;;;;2.63;1.23;;;;;;;20.59;58.11;101640.38;5096564;28;20459;-53
2023/09/28 15:54:00;;;;;;;7.57;2.00;;;;;;;20.60;58.19;101636.66;5098362;28;20154;-50
2023/09/28 15:56:26;;;;;;;2.38;1.50;;;;;;;20.59;57.87;101641.22;5089406;28;20020;-48
2023/09/28 15:58:51;;;;;;;2.85;1.45;;;;;;;20.40;57.68;101603.66;5091472;28;20067;-48
2023/09/28 16:01:18;;;;;;;2.00;1.48;;;;;;;20.61;57.84;101630.28;5095024;28;20032;-48
2023/09/28 16:03:47;;;;;;;2.20;1.52;;;;;;;20.52;57.89;101625.81;5093285;28;20039;-48
2023/09/28 16:06:12;;;;;;;1.95;1.58;;;;;;;20.59;58.00;101640.38;5086303;28;20028;-49
2023/09/28 16:08:37;;;;;;;2.28;1.23;;;;;;;20.62;57.85;101649.03;5090707;28;20027;-48
2023/09/28 16:11:03;;;;;;;2.55;1.27;;;;;;;20.44;57.73;101610.41;5089237;28;20043;-51
2023/09/28 16:13:28;;;;;;;3.92;1.73;;;;;;;20.64;58.01;101638.03;5068382;28;20029;-47
2023/09/28 16:15:53;;;;;;;3.20;1.50;;;;;;;20.64;58.00;101638.03;5095606;28;20142;-50
2023/09/28 16:18:19;;;;;;;4.07;1.70;;;;;;;20.63;57.70;101642.59;5088354;28;20060;-48
2023/09/28 16:20:44;;;;;;;2.10;1.20;;;;;;;20.45;58.02;101612.94;5098739;28;20028;-48
2023/09/28 16:23:09;;;;;;;2.63;1.77;;;;;;;20.54;57.74;101624.66;5092337;28;20020;-47
2023/09/28 16:25:35;;;;;;;3.47;1.40;;;;;;;20.46;57.83;101617.34;5092348;28;20387;-48
2023/09/28 16:28:01;;;;;;;2.75;1.33;;;;;;;20.64;57.67;101649.69;5086540;28;20025;-49
2023/09/28 16:30:27;;;;;;;3.95;1.25;;;;;;;20.64;57.64;101644.28;5085568;28;20059;-48
2023/09/28 16:32:52;;;;;;;2.58;1.30;;;;;;;20.61;57.72;101639.22;5091690;28;20024;-48
2023/09/28 16:35:18;;;;;;;4.40;1.63;;;;;;;20.63;57.97;101645.31;5071803;28;20035;-46
2023/09/28 16:37:43;;;;;;;2.95;1.40;;;;;;;20.61;57.86;101638.38;5095497;28;20024;-47
2023/09/28 16:40:08;;;;;;;3.63;1.50;;;;;;;20.63;57.63;101642.59;5091085;28;20163;-48
2023/09/28 16:42:35;;;;;;;2.83;1.50;;;;;;;20.64;58.01;101640.75;5090296;28;20103;-48
2023/09/28 16:45:00;;;;;;;4.05;1.45;;;;;;;20.64;57.67;101649.69;5090847;28;20256;-48
2023/09/28 16:47:26;;;;;;;2.83;1.40;;;;;;;20.64;57.81;101651.53;5088916;28;20034;-47
2023/09/28 16:49:51;;;;;;;2.30;1.40;;;;;;;20.63;58.07;101641.75;5091881;28;20070;-47
2023/09/28 16:52:16;;;;;;;2.10;1.20;;;;;;;20.64;57.65;101643.44;5093140;28;20060;-46
2023/09/28 16:54:42;;;;;;;3.13;1.45;;;;;;;20.62;57.69;101635.50;5089895;28;20039;-48
2023/09/28 16:57:07;;;;;;;3.50;1.60;;;;;;;20.62;57.88;101627.41;5092865;28;20028;-48
2023/09/28 16:59:32;;;;;;;1.85;1.35;;;;;;;20.63;57.77;101630.94;5091153;28;20020;-49
2023/09/28 17:01:58;;;;;;;2.25;1.45;;;;;;;20.62;57.65;101622.00;5092807;28;20054;-53
2023/09/28 17:04:23;;;;;;;2.40;1.35;;;;;;;20.62;57.99;101622.00;5073650;28;20020;-48
2023/09/28 17:06:48;;;;;;;2.85;1.27;;;;;;;20.63;58.13;101620.97;5086136;28;20474;-49
2023/09/28 17:09:13;;;;;;;4.25;1.70;;;;;;;20.62;58.03;101610.34;5075890;28;20115;-48
2023/09/28 17:11:40;;;;;;;1.95;1.48;;;;;;;20.62;57.90;101610.34;5092666;28;20050;-47
2023/09/28 17:14:05;;;;;;;4.03;1.65;;;;;;;20.56;57.73;101592.94;5076396;28;20016;-47
2023/09/28 17:16:31;;;;;;;2.67;1.30;;;;;;;20.61;58.10;101601.41;5092036;28;20035;-49
2023/09/28 17:18:57;;;;;;;3.22;1.55;;;;;;;20.62;57.86;101596.84;5091329;28;20047;-48
2023/09/28 17:21:23;;;;;;;3.45;1.60;;;;;;;20.62;58.15;101591.44;5093000;28;20083;-49
2023/09/28 17:23:48;;;;;;;2.47;1.48;;;;;;;20.62;58.15;101596.84;5092775;28;20023;-47
2023/09/28 17:26:14;;;;;;;2.78;1.60;;;;;;;20.61;58.05;101592.44;5092585;28;20028;-47
2023/09/28 17:28:41;;;;;;;3.28;2.60;;;;;;;20.62;57.99;101594.13;5095178;28;20032;-49
2023/09/28 17:31:06;;;;;;;13.00;9.18;;;;;;;20.61;58.05;101597.84;5094433;28;20024;-48
2023/09/28 17:33:31;;;;;;;18.02;12.35;;;;;;;20.61;57.84;101601.41;5088973;28;20039;-48
2023/09/28 17:35:57;;;;;;;35.33;22.10;;;;;;;20.60;58.17;101609.66;5090913;28;20043;-50
2023/09/28 17:38:22;;;;;;;37.55;20.48;;;;;;;20.61;58.11;101614.06;5075791;28;20074;-48
2023/09/28 17:40:47;;;;;;;46.70;25.13;;;;;;;20.60;57.88;101615.06;5089032;28;20068;-48
2023/09/28 17:43:13;;;;;;;69.05;40.25;;;;;;;20.51;58.00;101606.06;5094791;28;20052;-49
2023/09/28 17:45:38;;;;;;;98.55;54.50;;;;;;;20.60;57.94;101625.84;5090685;28;20047;-48
2023/09/28 17:48:04;;;;;;;128.18;68.43;;;;;;;20.59;58.07;101629.56;5086348;28;20071;-47
2023/09/28 17:50:30;;;;;;;106.93;57.08;;;;;;;20.58;58.08;101628.75;5094715;28;20047;-50
2023/09/28 17:52:55;;;;;;;109.85;58.33;;;;;;;20.50;58.12;101620.59;5092278;28;20067;-49
2023/09/28 17:55:20;;;;;;;142.20;80.22;;;;;;;20.59;58.52;101637.69;5087536;28;20055;-48
2023/09/28 17:57:46;;;;;;;172.55;94.35;;;;;;;20.58;58.56;101634.13;5088862;28;20028;-48
2023/09/28 18:00:11;;;;;;;172.68;96.88;;;;;;;20.58;58.85;101626.03;5092365;28;20051;-50
2023/09/28 18:02:37;;;;;;;166.80;94.85;;;;;;;20.56;58.91;101617.25;5084391;28;20467;-48
2023/09/28 18:05:03;;;;;;;159.35;89.63;;;;;;;20.50;58.76;101609.78;5082878;28;20036;-47
2023/09/28 18:07:28;;;;;;;161.65;85.90;;;;;;;20.54;59.30;101613.00;5090296;28;20082;-49
2023/09/28 18:09:54;;;;;;;150.48;82.13;;;;;;;20.58;59.03;101623.34;5078292;28;20035;-47
2023/09/28 18:12:19;;;;;;;144.90;77.20;;;;;;;20.58;59.29;101633.28;5082968;28;20025;-48
2023/09/28 18:14:44;;;;;;;137.77;72.65;;;;;;;20.58;59.27;101627.91;5069537;28;20028;-47
2023/09/28 18:17:10;;;;;;;135.93;72.53;;;;;;;20.57;59.39;101628.91;5069383;28;20441;-48
2023/09/28 18:19:36;;;;;;;127.75;68.32;;;;;;;20.53;59.23;101622.13;5072195;28;20174;-49
2023/09/28 18:22:02;;;;;;;117.72;65.78;;;;;;;20.56;59.33;101625.38;5073377;28;20028;-48
2023/09/28 18:24:27;;;;;;;121.60;65.45;;;;;;;20.57;59.33;101639.72;5067570;28;20025;-47
2023/09/28 18:26:53;;;;;;;110.22;62.55;;;;;;;20.57;59.48;101635.16;5071521;28;20056;-47
2023/09/28 18:29:18;;;;;;;117.60;61.83;;;;;;;20.56;59.42;101630.78;5075073;28;20032;-47
2023/09/28 18:31:43;;;;;;;120.32;64.03;;;;;;;20.57;59.52;101631.59;5073374;28;20031;-47
2023/09/28 18:34:09;;;;;;;106.32;58.13;;;;;;;20.45;59.14;101620.22;5066220;28;20431;-47
2023/09/28 18:36:34;;;;;;;99.32;59.28;;;;;;;20.56;59.52;101635.28;5067444;28;20023;-45
2023/09/28 18:39:00;;;;;;;119.35;61.63;;;;;;;20.56;59.16;101638.88;5070844;28;20029;-45
2023/09/28 18:41:25;;;;;;;119.97;59.47;;;;;;;20.57;59.18;101639.72;5073571;28;20047;-46
2023/09/28 18:43:50;;;;;;;105.70;58.95;;;;;;;20.51;59.39;101632.25;5074553;28;20526;-46
2023/09/28 18:46:19;;;;;;;112.38;58.33;;;;;;;20.43;59.49;101619.50;5074618;28;20033;-45
2023/09/28 18:48:47;;;;;;;104.35;55.10;;;;;;;20.56;59.13;101638.88;5078849;28;20024;-47
2023/09/28 18:51:16;;;;;;;108.25;56.30;;;;;;;20.57;59.25;101631.59;5074588;28;20025;-48
2023/09/28 18:53:42;;;;;;;102.60;55.13;;;;;;;20.56;59.39;101635.28;5073080;28;20032;-49
2023/09/28 18:56:08;;;;;;;98.22;54.88;;;;;;;20.55;59.39;101623.66;5072609;28;20097;-47
2023/09/28 18:58:33;;;;;;;91.32;50.25;;;;;;;20.56;58.93;101628.06;5074113;28;20029;-49
2023/09/28 19:00:59;;;;;;;98.57;52.10;;;;;;;20.56;59.41;101622.66;5076183;28;20040;-48
2023/09/28 19:03:24;;;;;;;97.63;52.28;;;;;;;20.53;59.46;101611.31;5074532;28;20033;-51
2023/09/28 19:05:49;;;;;;;94.95;50.15;;;;;;;20.56;59.13;101624.50;5074511;28;20641;-50
2023/09/28 19:08:15;;;;;;;86.63;49.45;;;;;;;20.56;59.38;101632.59;5073788;28;20032;-49
2023/09/28 19:10:40;;;;;;;90.93;48.65;;;;;;;20.55;58.86;101634.44;5074472;28;20033;-50
2023/09/28 19:13:06;;;;;;;87.95;47.67;;;;;;;20.56;59.56;101638.88;5073865;28;20033;-50
2023/09/28 19:15:32;;;;;;;95.88;46.28;;;;;;;20.55;59.37;101639.84;5075040;28;20147;-50
2023/09/28 19:17:58;;;;;;;83.93;46.58;;;;;;;20.56;59.19;101635.28;5073943;28;20033;-49
2023/09/28 19:20:23;;;;;;;78.72;44.60;;;;;;;20.52;59.27;101625.81;5074331;28;20035;-47
2023/09/28 19:22:48;;;;;;;82.55;45.20;;;;;;;20.50;59.33;101617.88;5075612;28;20036;-52
2023/09/28 19:25:15;;;;;;;84.30;44.80;;;;;;;20.52;59.39;101621.28;5073510;28;20119;-49
2023/09/28 19:27:40;;;;;;;85.32;42.85;;;;;;;20.54;59.43;101618.41;5074130;28;20132;-48
2023/09/28 19:30:06;;;;;;;83.45;43.08;;;;;;;20.52;59.16;101624.00;5077043;28;20029;-51
2023/09/28 19:32:32;;;;;;;83.28;42.97;;;;;;;20.51;59.14;101616.88;5074883;28;20025;-48
2023/09/28 19:34:57;;;;;;;72.95;41.00;;;;;;;20.54;59.20;101624.66;5055706;28;20033;-48
2023/09/28 19:37:23;;;;;;;82.38;43.00;;;;;;;20.54;59.43;101621.97;5071173;28;20031;-51
2023/09/28 19:39:48;;;;;;;75.13;39.80;;;;;;;20.54;59.14;101623.81;5076768;28;20116;-50
2023/09/28 19:42:13;;;;;;;72.20;39.08;;;;;;;20.54;59.23;101619.25;5075203;28;20063;-48
2023/09/28 19:44:38;;;;;;;66.50;38.25;;;;;;;20.54;59.44;101613.00;5064724;28;20384;-46
2023/09/28 19:47:04;;;;;;;68.78;37.47;;;;;;;20.55;59.36;101609.28;5075450;28;20058;-46
2023/09/28 19:49:30;;;;;;;71.63;39.70;;;;;;;20.51;59.15;101608.78;5073911;28;20090;-47
2023/09/28 19:51:55;;;;;;;61.08;35.35;;;;;;;20.45;59.42;101585.94;5078046;28;20088;-47
2023/09/28 19:54:21;;;;;;;67.82;34.92;;;;;;;20.55;59.44;101603.91;5075883;28;20031;-47
2023/09/28 19:56:46;;;;;;;63.28;35.20;;;;;;;20.36;59.26;101573.41;5070688;28;20044;-48
2023/09/28 19:59:11;;;;;;;62.15;32.95;;;;;;;20.56;59.43;101598.34;5068220;28;20113;-47
2023/09/28 20:01:36;;;;;;;54.00;31.88;;;;;;;20.58;59.21;101599.00;5077444;28;20032;-47
2023/09/28 20:04:02;;;;;;;62.47;34.35;;;;;;;20.58;59.20;101599.00;5072766;28;20198;-45
2023/09/28 20:06:30;;;;;;;62.40;34.63;;;;;;;20.58;59.47;101596.31;5066207;28;20032;-46
2023/09/28 20:08:57;;;;;;;60.97;32.75;;;;;;;20.41;59.36;101560.25;5074370;28;20026;-46